Harleysville, PA

12:43 AM EST on November 24, 2014 (GMT -0500)
Philadelphia Wings Airport | Change Station
CLOSE
Current Station
Airport
Location: Philadelphia Wings Airport,
Elevation: 302 ft
Nearby Weather Stations

Elev 302 ft 40.14 °N, 75.27 °W | Updated 8 minutes ago

Overcast
Overcast
54 °F
Feels Like 54 °F
N
5
Wind Variable Wind from ESE

Today
High -- | Low -- °F
--% Chance of Precip.
Yesterday
High -- | Low -- °F
Precip. -- in
6:57 AM 4:38 PM
Waxing Crescent, 4% visible
Pressure 29.87 in
Visibility 7.0 miles
Clouds Scattered Clouds 800 ft
Scattered Clouds 1400 ft
Mostly Cloudy 2100 ft
Dew Point 54 °F
Humidity 100%
Rainfall 0.00 in
Snow Depth Not available.
UV 0 out of 12
Pollen .10 out of 12
Air Quality Not available.
Flu Activity Not available.
METAR KLOM 240535Z AUTO 11004KT 7SM SCT008 SCT014 BKN021 12/12 A2987 RMK AO1

More Conditions Fewer Conditions

Pressure 29.87 in
Visibility 7.0 miles
Clouds Scattered Clouds 800 ft
Scattered Clouds 1400 ft
Mostly Cloudy 2100 ft
Dew Point 54 °F
Humidity 100%
Rainfall 0.00 in
Snow Depth Not available.
UV 0 out of 12
Pollen .10 out of 12
Air Quality Not available.
Flu Activity Not available.
METAR KLOM 240535Z AUTO 11004KT 7SM SCT008 SCT014 BKN021 12/12 A2987 RMK AO1

More Conditions Fewer Conditions

Nowcast | as of 11:02 PM EST on November 23, 2014

Areas of light rain will continue to move north into Delmarva and southeastern PA. Through 1 am EST...rain amounts will be light...generally less than a tenth of an inch. Intermittent rain could continue through mid day Monday.

×

10-Day Weather Forecast

Almanac

Astronomy

Nov. 24, 2014 Rise Set
Actual Time
Civil Twilight
Nautical Twilight
Astronomical Twilight
Moon
Length of Visible Light
Length of Day
Tomorrow will be .
, % of the Moon is Illuminated

Today's Extremes

State Highs State Lows

Community

WunderPhotos

Upload Photos

1,773,279 photos uploaded!

WunderBlogs® & News

Nearby

Air Quality

  Air Quality AQ Index Pollutant
Not available.

Snow Depth

Station Depth Elevation

Earthquake Activity

City Distance Mag. Time & Date
Minimum magnitude displayed is 2.5.

Coastal Water Temperatures

Place Temperature

Nearby Weather Stations